createdAt,value
2019-05-06T00:02:01.390Z,5.33
2019-05-06T00:04:34.038Z,4.70
2019-05-06T00:07:04.974Z,4.03
2019-05-06T00:09:35.916Z,4.03
2019-05-06T00:12:06.829Z,4.23
2019-05-06T00:14:37.756Z,4.30
2019-05-06T00:17:08.932Z,3.67
2019-05-06T00:19:39.881Z,4.43
2019-05-06T00:22:10.815Z,5.10
2019-05-06T00:24:54.948Z,4.63
2019-05-06T00:27:34.107Z,4.20
2019-05-06T00:30:04.933Z,3.83
2019-05-06T00:32:35.929Z,3.50
2019-05-06T00:35:07.309Z,4.20
2019-05-06T00:37:38.166Z,4.50
2019-05-06T00:40:15.836Z,4.80
2019-05-06T00:43:06.680Z,4.97
2019-05-06T00:45:37.510Z,4.40
2019-05-06T00:48:08.223Z,5.07
2019-05-06T00:50:39.108Z,3.57
2019-05-06T00:53:14.067Z,4.77
2019-05-06T00:55:44.712Z,4.00
2019-05-06T00:58:16.670Z,4.17
2019-05-06T01:00:47.542Z,5.07
2019-05-06T01:03:18.367Z,5.23
2019-05-06T01:05:49.459Z,4.20
2019-05-06T01:08:20.261Z,4.77
2019-05-06T01:10:51.056Z,4.57
2019-05-06T01:13:30.969Z,4.10
2019-05-06T01:16:04.112Z,4.67
2019-05-06T01:18:34.477Z,4.83
2019-05-06T01:21:11.391Z,5.03
2019-05-06T01:23:44.005Z,3.77
2019-05-06T01:26:15.838Z,5.03
2019-05-06T01:28:46.784Z,4.93
2019-05-06T01:31:17.534Z,4.90
2019-05-06T01:33:48.488Z,4.97
2019-05-06T01:36:19.295Z,5.03
2019-05-06T01:39:20.931Z,5.40
2019-05-06T01:42:04.516Z,4.87
2019-05-06T01:44:35.443Z,4.63
2019-05-06T01:47:06.926Z,4.73
2019-05-06T01:49:37.961Z,5.93
2019-05-06T01:52:08.758Z,5.43
2019-05-06T01:54:39.610Z,5.03
2019-05-06T01:57:10.415Z,5.10
2019-05-06T01:59:41.261Z,5.53
2019-05-06T02:02:14.154Z,4.93
2019-05-06T02:04:44.580Z,5.07
2019-05-06T02:07:15.407Z,4.50
2019-05-06T02:09:46.297Z,5.80
2019-05-06T02:12:17.089Z,4.60
2019-05-06T02:14:47.877Z,6.73
2019-05-06T02:17:18.700Z,6.87
2019-05-06T02:19:49.473Z,6.47
2019-05-06T02:22:30.653Z,7.43
2019-05-06T02:25:06.584Z,5.20
2019-05-06T02:27:37.474Z,5.33
2019-05-06T02:30:25.705Z,6.33
2019-05-06T02:33:04.340Z,6.73
2019-05-06T02:35:39.590Z,7.10
2019-05-06T02:38:32.576Z,7.53
2019-05-06T02:40:56.978Z,6.70
2019-05-06T02:43:27.860Z,6.80
2019-05-06T02:45:59.333Z,5.63
2019-05-06T02:48:55.124Z,5.70
2019-05-06T02:51:27.803Z,7.07
2019-05-06T02:53:58.679Z,6.63
2019-05-06T02:56:33.423Z,6.13
2019-05-06T02:59:04.435Z,5.10
2019-05-06T03:01:35.268Z,5.77
2019-05-06T03:04:07.133Z,5.33
2019-05-06T03:06:38.261Z,5.40
2019-05-06T03:09:09.160Z,5.90
2019-05-06T03:11:39.946Z,5.77
2019-05-06T03:14:13.621Z,4.77
2019-05-06T03:16:44.103Z,4.53
2019-05-06T03:19:15.314Z,5.33
2019-05-06T03:22:08.148Z,5.13
2019-05-06T03:24:46.952Z,5.40
2019-05-06T03:27:17.825Z,5.77
2019-05-06T03:29:48.628Z,4.53
2019-05-06T03:32:25.240Z,4.97
2019-05-06T03:35:16.629Z,5.00
2019-05-06T03:37:24.566Z,4.80
2019-05-06T03:39:55.466Z,4.73
2019-05-06T03:42:26.716Z,5.67
2019-05-06T03:45:04.271Z,4.97
2019-05-06T03:47:47.975Z,4.53
2019-05-06T03:50:19.165Z,4.60
2019-05-06T03:52:50.342Z,5.00
2019-05-06T03:55:23.421Z,5.23
2019-05-06T03:57:56.052Z,4.80
2019-05-06T04:00:26.895Z,5.13
2019-05-06T04:02:57.763Z,4.87
2019-05-06T04:05:28.646Z,4.83
2019-05-06T04:08:03.626Z,4.43
2019-05-06T04:10:36.703Z,4.10
2019-05-06T04:13:06.955Z,5.33
2019-05-06T04:15:56.344Z,5.23
2019-05-06T04:18:28.371Z,4.23
2019-05-06T04:21:08.779Z,4.37
2019-05-06T04:23:57.890Z,5.10
2019-05-06T04:27:04.139Z,4.43
2019-05-06T04:29:35.596Z,4.67
2019-05-06T04:32:06.568Z,3.80
2019-05-06T04:34:37.899Z,5.27
2019-05-06T04:37:09.046Z,4.60
2019-05-06T04:39:43.265Z,4.13
2019-05-06T04:42:13.878Z,5.20
2019-05-06T04:44:45.022Z,4.77
2019-05-06T04:47:15.891Z,4.43
2019-05-06T04:49:47.022Z,3.37
2019-05-06T04:52:18.069Z,4.13
2019-05-06T04:54:48.838Z,4.50
2019-05-06T04:57:20.010Z,3.57
2019-05-06T04:59:53.967Z,3.80
2019-05-06T05:02:23.390Z,3.87
2019-05-06T05:04:54.513Z,4.43
2019-05-06T05:07:25.744Z,4.63
2019-05-06T05:10:07.815Z,6.20
2019-05-06T05:12:47.700Z,3.80
2019-05-06T05:15:43.249Z,4.33
2019-05-06T05:18:35.936Z,5.07
2019-05-06T05:21:06.786Z,4.33
2019-05-06T05:23:38.250Z,4.33
2019-05-06T05:26:11.988Z,4.57
2019-05-06T05:28:43.028Z,4.47
2019-05-06T05:31:14.245Z,4.20
2019-05-06T05:33:47.680Z,5.00
2019-05-06T05:36:18.799Z,5.70
2019-05-06T05:38:52.080Z,4.33
2019-05-06T05:41:23.333Z,4.80
2019-05-06T05:44:02.392Z,4.37
2019-05-06T05:46:33.417Z,4.80
2019-05-06T05:49:22.596Z,5.57
2019-05-06T05:51:54.471Z,5.43
2019-05-06T05:54:25.652Z,4.13
2019-05-06T05:56:56.822Z,4.97
2019-05-06T05:59:28.055Z,5.13
2019-05-06T06:01:59.011Z,4.83
2019-05-06T06:04:32.031Z,5.00
2019-05-06T06:07:02.889Z,5.30
2019-05-06T06:09:39.179Z,4.70
2019-05-06T06:12:11.943Z,4.63
2019-05-06T06:14:55.640Z,4.00
2019-05-06T06:17:37.886Z,4.47
2019-05-06T06:20:26.426Z,3.80
2019-05-06T06:23:00.403Z,3.87
2019-05-06T06:25:33.429Z,3.93
2019-05-06T06:28:04.180Z,4.27
2019-05-06T06:30:45.641Z,3.80
2019-05-06T06:33:16.802Z,4.57
2019-05-06T06:36:06.805Z,3.47
2019-05-06T06:39:12.479Z,4.03
2019-05-06T06:41:43.557Z,2.95
2019-05-06T06:44:17.574Z,3.42
2019-05-06T06:46:48.436Z,3.17
2019-05-06T06:49:19.416Z,3.40
2019-05-06T06:51:53.158Z,3.33
2019-05-06T06:54:24.160Z,3.72
2019-05-06T06:57:08.905Z,2.65
2019-05-06T06:59:48.400Z,2.55
2019-05-06T07:02:34.482Z,3.27
2019-05-06T07:05:25.503Z,2.30
2019-05-06T07:07:48.464Z,2.47
2019-05-06T07:10:36.772Z,3.17
2019-05-06T07:13:07.824Z,2.02
2019-05-06T07:15:38.752Z,2.33
2019-05-06T07:18:09.634Z,3.37
2019-05-06T07:20:58.615Z,3.00
2019-05-06T07:23:32.538Z,2.83
2019-05-06T07:26:03.161Z,2.87
2019-05-06T07:28:34.182Z,2.85
2019-05-06T07:31:20.678Z,2.65
2019-05-06T07:33:38.687Z,3.27
2019-05-06T07:36:09.527Z,3.27
2019-05-06T07:38:49.786Z,2.90
2019-05-06T07:41:29.637Z,3.17
2019-05-06T07:44:23.292Z,3.52
2019-05-06T07:47:04.751Z,3.72
2019-05-06T07:49:35.693Z,4.28
2019-05-06T07:52:06.581Z,3.77
2019-05-06T07:54:37.429Z,3.27
2019-05-06T07:57:08.303Z,3.67
2019-05-06T07:59:39.206Z,3.80
2019-05-06T08:02:10.045Z,3.67
2019-05-06T08:04:42.100Z,4.15
2019-05-06T08:07:13.060Z,3.37
2019-05-06T08:09:43.981Z,3.92
2019-05-06T08:12:15.036Z,3.72
2019-05-06T08:14:45.871Z,3.30
2019-05-06T08:17:22.651Z,2.98
2019-05-06T08:19:53.809Z,4.87
2019-05-06T08:22:45.728Z,5.78
2019-05-06T08:25:16.650Z,3.27
2019-05-06T08:27:49.503Z,3.50
2019-05-06T08:30:20.168Z,4.72
2019-05-06T08:32:52.886Z,4.10
2019-05-06T08:35:23.505Z,4.15
2019-05-06T08:37:54.628Z,4.80
2019-05-06T08:40:26.547Z,3.65
2019-05-06T08:42:57.571Z,3.45
2019-05-06T08:45:28.436Z,4.35
2019-05-06T08:47:59.423Z,4.37
2019-05-06T08:50:36.870Z,4.58
2019-05-06T08:53:26.965Z,3.87
2019-05-06T08:55:57.841Z,3.90
2019-05-06T08:58:47.638Z,3.85
2019-05-06T09:01:32.521Z,4.17
2019-05-06T09:04:11.368Z,4.80
2019-05-06T09:06:36.669Z,4.85
2019-05-06T09:09:09.240Z,4.22
2019-05-06T09:11:42.896Z,4.50
2019-05-06T09:14:13.911Z,4.37
2019-05-06T09:16:45.120Z,4.05
2019-05-06T09:19:16.038Z,4.15
2019-05-06T09:21:46.920Z,3.45
2019-05-06T09:24:18.078Z,4.50
2019-05-06T09:27:03.829Z,3.87
2019-05-06T09:29:45.033Z,3.80
2019-05-06T09:32:37.792Z,3.45
2019-05-06T09:35:09.617Z,4.05
2019-05-06T09:37:42.879Z,4.33
2019-05-06T09:40:13.360Z,3.27
2019-05-06T09:42:44.317Z,4.45
2019-05-06T09:45:15.814Z,3.60
2019-05-06T09:48:12.857Z,4.22
2019-05-06T09:50:46.605Z,3.87
2019-05-06T09:53:23.148Z,3.60
2019-05-06T09:56:18.925Z,4.08
2019-05-06T09:58:49.878Z,3.45
2019-05-06T10:01:22.507Z,4.05
2019-05-06T10:03:53.970Z,3.37
2019-05-06T10:06:24.913Z,4.25
2019-05-06T10:08:55.864Z,5.47
2019-05-06T10:11:26.743Z,3.42
2019-05-06T10:13:57.897Z,2.98
2019-05-06T10:16:28.975Z,3.87
2019-05-06T10:19:02.447Z,3.42
2019-05-06T10:21:32.646Z,4.62
2019-05-06T10:24:03.955Z,3.30
2019-05-06T10:26:39.685Z,2.83
2019-05-06T10:29:28.205Z,3.67
2019-05-06T10:32:36.181Z,2.95
2019-05-06T10:35:08.109Z,3.35
2019-05-06T10:37:49.649Z,2.95
2019-05-06T10:40:27.590Z,3.25
2019-05-06T10:43:11.448Z,2.45
2019-05-06T10:45:42.691Z,3.72
2019-05-06T10:48:13.710Z,3.17
2019-05-06T10:50:48.431Z,2.47
2019-05-06T10:53:23.006Z,2.95
2019-05-06T10:55:57.922Z,2.47
2019-05-06T10:58:28.855Z,2.50
2019-05-06T11:01:18.767Z,2.77
2019-05-06T11:03:49.760Z,3.58
2019-05-06T11:06:22.106Z,2.70
2019-05-06T11:08:53.311Z,3.37
2019-05-06T11:11:32.719Z,4.25
2019-05-06T11:13:56.874Z,3.20
2019-05-06T11:16:27.783Z,3.00
2019-05-06T11:18:59.040Z,2.90
2019-05-06T11:21:29.959Z,3.05
2019-05-06T11:24:00.952Z,3.45
2019-05-06T11:26:31.895Z,4.25
2019-05-06T11:29:07.594Z,3.62
2019-05-06T11:31:57.406Z,3.50
2019-05-06T11:34:58.957Z,3.55
2019-05-06T11:37:54.389Z,4.92
2019-05-06T11:40:24.620Z,3.33
2019-05-06T11:42:55.612Z,3.20
2019-05-06T11:45:26.490Z,3.22
2019-05-06T11:47:57.350Z,3.50
2019-05-06T11:50:28.211Z,3.47
2019-05-06T11:52:59.173Z,3.67
2019-05-06T11:55:34.425Z,3.58
2019-05-06T11:58:02.796Z,4.03
2019-05-06T12:00:38.010Z,3.85
2019-05-06T12:03:08.983Z,4.40
2019-05-06T12:05:41.844Z,3.40
2019-05-06T12:08:15.376Z,3.75
2019-05-06T12:10:45.463Z,4.15
2019-05-06T12:13:16.376Z,4.05
2019-05-06T12:15:47.993Z,4.87
2019-05-06T12:18:18.912Z,3.60
2019-05-06T12:20:52.619Z,3.87
2019-05-06T12:23:22.644Z,3.70
2019-05-06T12:25:53.569Z,3.80
2019-05-06T12:28:24.463Z,4.80
2019-05-06T12:30:55.468Z,4.00
2019-05-06T12:33:34.551Z,4.20
2019-05-06T12:36:22.404Z,3.70
2019-05-06T12:39:15.715Z,4.20
2019-05-06T12:42:16.006Z,4.53
2019-05-06T12:45:03.521Z,3.87
2019-05-06T12:47:56.509Z,3.20
2019-05-06T12:50:27.333Z,4.43
2019-05-06T12:52:58.204Z,3.25
2019-05-06T12:55:29.068Z,4.10
2019-05-06T12:57:59.967Z,3.37
2019-05-06T13:00:32.921Z,4.10
2019-05-06T13:03:04.030Z,4.60
2019-05-06T13:05:35.029Z,4.15
2019-05-06T13:08:06.778Z,3.58
2019-05-06T13:10:37.818Z,3.80
2019-05-06T13:13:09.218Z,3.98
2019-05-06T13:15:40.164Z,4.90
2019-05-06T13:18:11.233Z,4.83
2019-05-06T13:20:49.519Z,4.25
2019-05-06T13:23:39.525Z,4.90
2019-05-06T13:26:12.695Z,4.87
2019-05-06T13:28:47.123Z,4.50
2019-05-06T13:32:56.998Z,3.92
2019-05-06T13:33:55.752Z,4.22
2019-05-06T13:36:26.840Z,4.40
2019-05-06T13:39:13.358Z,4.00
2019-05-06T13:41:32.699Z,4.28
2019-05-06T13:44:14.841Z,4.55
2019-05-06T13:46:52.874Z,4.08
2019-05-06T13:49:42.819Z,4.42
2019-05-06T13:52:18.553Z,4.47
2019-05-06T13:54:49.790Z,4.28
2019-05-06T13:57:20.821Z,3.52
2019-05-06T13:59:53.253Z,3.55
2019-05-06T14:02:43.691Z,4.00
2019-05-06T14:05:15.641Z,3.83
2019-05-06T14:07:46.588Z,4.42
2019-05-06T14:10:17.444Z,4.00
2019-05-06T14:12:48.303Z,4.62
2019-05-06T14:15:19.483Z,3.70
2019-05-06T14:17:52.460Z,3.92
2019-05-06T14:20:23.147Z,4.25
2019-05-06T14:22:55.010Z,3.67
2019-05-06T14:25:43.578Z,3.40
2019-05-06T14:28:22.216Z,3.33
2019-05-06T14:30:56.798Z,4.97
2019-05-06T14:33:27.693Z,3.65
2019-05-06T14:35:58.596Z,4.28
2019-05-06T14:38:32.111Z,4.33
2019-05-06T14:41:26.727Z,4.33
2019-05-06T14:43:55.315Z,4.00
2019-05-06T14:46:33.140Z,3.20
2019-05-06T14:49:04.373Z,3.53
2019-05-06T14:51:35.461Z,2.93
2019-05-06T14:54:06.353Z,4.03
2019-05-06T14:56:50.058Z,3.20
2019-05-06T14:59:23.268Z,3.33
2019-05-06T15:01:53.888Z,3.60
2019-05-06T15:04:24.863Z,3.83
2019-05-06T15:06:55.858Z,3.57
2019-05-06T15:09:26.806Z,3.50
2019-05-06T15:11:58.222Z,3.40
2019-05-06T15:14:29.071Z,3.50
2019-05-06T15:17:02.043Z,3.40
2019-05-06T15:19:32.485Z,3.07
2019-05-06T15:22:03.381Z,3.80
2019-05-06T15:24:34.764Z,4.10
2019-05-06T15:27:05.777Z,3.93
2019-05-06T15:29:37.053Z,3.47
2019-05-06T15:32:19.424Z,3.83
2019-05-06T15:35:12.827Z,3.53
2019-05-06T15:38:09.488Z,3.53
2019-05-06T15:40:40.456Z,3.10
2019-05-06T15:43:12.722Z,3.50
2019-05-06T15:45:43.607Z,3.43
2019-05-06T15:48:14.507Z,3.10
2019-05-06T15:50:46.084Z,2.93
2019-05-06T15:53:16.971Z,3.37
2019-05-06T15:55:47.890Z,3.50
2019-05-06T15:58:18.779Z,2.93
2019-05-06T16:00:49.640Z,3.27
2019-05-06T16:03:22.616Z,3.03
2019-05-06T16:05:55.270Z,2.67
2019-05-06T16:08:25.804Z,3.23
2019-05-06T16:10:58.880Z,3.67
2019-05-06T16:13:29.468Z,3.17
2019-05-06T16:16:02.775Z,4.23
2019-05-06T16:18:33.140Z,3.30
2019-05-06T16:21:04.079Z,2.83
2019-05-06T16:23:42.296Z,3.23
2019-05-06T16:26:13.361Z,2.90
2019-05-06T16:28:44.955Z,4.10
2019-05-06T16:31:16.138Z,3.43
2019-05-06T16:33:47.146Z,2.70
2019-05-06T16:36:18.110Z,3.17
2019-05-06T16:38:49.119Z,2.97
2019-05-06T16:41:22.365Z,3.20
2019-05-06T16:43:52.804Z,3.20
2019-05-06T16:46:23.772Z,3.97
2019-05-06T16:48:54.744Z,3.17
2019-05-06T16:51:25.848Z,2.93
2019-05-06T16:53:56.882Z,3.07
2019-05-06T16:56:36.519Z,3.57
2019-05-06T16:59:07.613Z,4.27
2019-05-06T17:01:42.476Z,3.27
2019-05-06T17:04:23.048Z,3.20
2019-05-06T17:06:54.363Z,3.87
2019-05-06T17:09:27.697Z,2.30
2019-05-06T17:11:58.321Z,3.07
2019-05-06T17:14:29.334Z,2.90
2019-05-06T17:17:00.272Z,3.30
2019-05-06T17:19:32.428Z,3.70
2019-05-06T17:22:06.797Z,3.13
2019-05-06T17:24:37.709Z,3.23
2019-05-06T17:27:08.793Z,3.67
2019-05-06T17:30:01.504Z,3.43
2019-05-06T17:32:48.163Z,2.97
2019-05-06T17:35:19.215Z,3.93
2019-05-06T17:38:13.319Z,3.73
2019-05-06T17:40:44.400Z,4.23
2019-05-06T17:43:15.425Z,3.97
2019-05-06T17:46:02.354Z,4.07
2019-05-06T17:48:48.405Z,3.97
2019-05-06T17:51:22.520Z,3.50
2019-05-06T17:53:54.356Z,3.33
2019-05-06T17:56:25.488Z,4.30
2019-05-06T17:58:56.561Z,3.97
2019-05-06T18:01:46.341Z,3.90
2019-05-06T18:04:17.223Z,4.43
2019-05-06T18:06:48.510Z,3.03
2019-05-06T18:09:22.185Z,3.53
2019-05-06T18:11:58.888Z,3.70
2019-05-06T18:14:25.027Z,4.13
2019-05-06T18:16:55.928Z,6.23
2019-05-06T18:19:26.790Z,3.67
2019-05-06T18:21:57.731Z,3.60
2019-05-06T18:24:28.657Z,3.50
2019-05-06T18:26:59.808Z,3.63
2019-05-06T18:29:33.201Z,3.80
2019-05-06T18:32:03.907Z,3.53
2019-05-06T18:34:34.876Z,3.37
2019-05-06T18:37:05.748Z,3.23
2019-05-06T18:39:36.719Z,3.47
2019-05-06T18:42:16.769Z,3.87
2019-05-06T18:44:42.101Z,3.90
2019-05-06T18:47:12.652Z,3.53
2019-05-06T18:49:43.557Z,3.60
2019-05-06T18:52:14.693Z,4.60
2019-05-06T18:54:45.925Z,4.53
2019-05-06T18:57:16.883Z,4.80
2019-05-06T18:59:47.737Z,4.60
2019-05-06T19:02:19.228Z,4.37
2019-05-06T19:05:05.017Z,4.67
2019-05-06T19:07:35.933Z,4.00
2019-05-06T19:10:12.886Z,4.43
2019-05-06T19:12:43.813Z,3.83
2019-05-06T19:15:14.855Z,4.23
2019-05-06T19:17:45.661Z,4.57
2019-05-06T19:20:16.581Z,5.13
2019-05-06T19:22:47.454Z,4.33
2019-05-06T19:25:18.610Z,5.30
2019-05-06T19:27:49.467Z,4.33
2019-05-06T19:30:22.480Z,4.03
2019-05-06T19:32:53.470Z,4.17
2019-05-06T19:35:24.391Z,3.57
2019-05-06T19:37:55.348Z,5.23
2019-05-06T19:40:27.477Z,5.40
2019-05-06T19:42:58.687Z,4.93
2019-05-06T19:45:29.636Z,4.97
2019-05-06T19:48:02.693Z,5.13
2019-05-06T19:50:33.171Z,4.83
2019-05-06T19:53:04.044Z,5.27
2019-05-06T19:55:35.984Z,5.03
2019-05-06T19:58:06.866Z,5.27
2019-05-06T20:00:37.775Z,5.07
2019-05-06T20:03:08.755Z,5.30
2019-05-06T20:05:59.631Z,4.93
2019-05-06T20:08:38.041Z,4.90
2019-05-06T20:11:18.625Z,4.93
2019-05-06T20:13:49.421Z,4.70
2019-05-06T20:16:20.341Z,4.10
2019-05-06T20:18:52.615Z,4.30
2019-05-06T20:21:23.590Z,5.17
2019-05-06T20:23:54.423Z,4.80
2019-05-06T20:26:25.350Z,4.73
2019-05-06T20:28:56.206Z,5.63
2019-05-06T20:31:27.168Z,5.43
2019-05-06T20:33:57.968Z,6.47
2019-05-06T20:36:28.881Z,5.10
2019-05-06T20:38:59.776Z,4.53
2019-05-06T20:41:32.750Z,5.47
2019-05-06T20:44:03.430Z,6.20
2019-05-06T20:46:34.429Z,5.20
2019-05-06T20:49:05.370Z,6.17
2019-05-06T20:51:36.261Z,5.07
2019-05-06T20:54:07.224Z,5.73
2019-05-06T20:56:38.074Z,5.73
2019-05-06T20:59:08.970Z,5.47
2019-05-06T21:01:42.242Z,5.27
2019-05-06T21:04:13.168Z,6.33
2019-05-06T21:06:44.129Z,6.20
2019-05-06T21:09:15.030Z,6.50
2019-05-06T21:11:45.939Z,6.47
2019-05-06T21:14:16.831Z,5.87
2019-05-06T21:16:48.175Z,6.23
2019-05-06T21:19:19.507Z,6.20
2019-05-06T21:21:52.577Z,7.20
2019-05-06T21:24:24.483Z,6.17
2019-05-06T21:26:55.335Z,6.20
2019-05-06T21:29:26.307Z,6.40
2019-05-06T21:31:57.228Z,6.77
2019-05-06T21:34:28.105Z,5.90
2019-05-06T21:37:02.630Z,6.20
2019-05-06T21:39:33.061Z,5.80
2019-05-06T21:42:03.950Z,6.50
2019-05-06T21:44:34.824Z,6.30
2019-05-06T21:47:05.789Z,5.87
2019-05-06T21:49:36.963Z,6.43
2019-05-06T21:52:07.847Z,5.77
2019-05-06T21:54:38.703Z,5.77
2019-05-06T21:57:09.625Z,5.67
2019-05-06T21:59:42.613Z,4.77
2019-05-06T22:02:14.658Z,5.73
2019-05-06T22:04:45.580Z,6.07
2019-05-06T22:07:16.498Z,5.67
2019-05-06T22:09:47.393Z,5.80
2019-05-06T22:12:18.249Z,6.13
2019-05-06T22:14:49.077Z,6.60
2019-05-06T22:17:22.443Z,5.33
2019-05-06T22:19:53.473Z,6.80
2019-05-06T22:22:26.561Z,6.53
2019-05-06T22:24:58.049Z,5.97
2019-05-06T22:27:29.757Z,5.60
2019-05-06T22:30:03.028Z,5.87
2019-05-06T22:32:45.476Z,6.70
2019-05-06T22:35:17.248Z,6.43
2019-05-06T22:37:49.187Z,5.33
2019-05-06T22:40:23.482Z,7.33
2019-05-06T22:42:53.572Z,6.03
2019-05-06T22:45:24.485Z,5.93
2019-05-06T22:47:55.707Z,6.07
2019-05-06T22:50:26.601Z,6.70
2019-05-06T22:52:57.502Z,6.67
2019-05-06T22:55:28.415Z,7.37
2019-05-06T22:57:59.419Z,5.63
2019-05-06T23:00:33.251Z,5.93
2019-05-06T23:03:08.438Z,6.13
2019-05-06T23:05:39.214Z,6.80
2019-05-06T23:08:12.167Z,6.20
2019-05-06T23:10:42.487Z,5.90
2019-05-06T23:13:13.461Z,6.63
2019-05-06T23:15:44.262Z,7.40
2019-05-06T23:18:15.185Z,6.63
2019-05-06T23:20:46.425Z,6.63
2019-05-06T23:23:17.308Z,6.00
2019-05-06T23:26:07.082Z,8.40
2019-05-06T23:28:38.288Z,7.47
2019-05-06T23:31:09.110Z,7.77
2019-05-06T23:33:39.941Z,6.63
2019-05-06T23:36:12.095Z,7.53
2019-05-06T23:39:18.522Z,8.43
2019-05-06T23:42:24.969Z,7.43
2019-05-06T23:45:32.428Z,6.50
2019-05-06T23:48:38.873Z,7.00
2019-05-06T23:51:44.863Z,6.83
2019-05-06T23:54:52.266Z,7.37
2019-05-06T23:57:22.503Z,7.33
2019-05-06T23:59:54.654Z,7.23
